Time;durP1;ratioP1;P1;durP2;ratioP2;P2;SDS_P1;SDS_P2;PMS_P1;PMS_P2;Temp;Humidity;BMP_temperature;BMP_pressure;BME280_temperature;BME280_humidity;BME280_pressure;Samples;Min_cycle;Max_cycle;Signal;HPM_P1;HPM_P2
2022/05/08 00:02:07;;;;;;;12.05;7.32;;;16.90;99.90;;;;;;4959437;28;20027;-69
2022/05/08 00:04:33;;;;;;;8.20;7.20;;;16.90;99.90;;;;;;4964439;28;20105;-69
2022/05/08 00:06:59;;;;;;;8.85;6.82;;;16.90;99.90;;;;;;4966697;28;20034;-69
2022/05/08 00:09:25;;;;;;;10.02;6.25;;;16.90;99.90;;;;;;4967369;28;20513;-69
2022/05/08 00:11:52;;;;;;;9.95;6.25;;;16.90;99.90;;;;;;4966065;28;20585;-69
2022/05/08 00:14:18;;;;;;;11.50;5.95;;;16.70;99.90;;;;;;4966821;28;20038;-69
2022/05/08 00:16:44;;;;;;;7.32;5.88;;;16.80;99.90;;;;;;4965303;28;20358;-69
2022/05/08 00:19:10;;;;;;;7.93;5.97;;;16.80;99.90;;;;;;4960839;28;20471;-69
2022/05/08 00:21:35;;;;;;;8.85;6.15;;;16.70;99.90;;;;;;4963322;28;20084;-69
2022/05/08 00:24:01;;;;;;;7.82;6.25;;;16.70;99.90;;;;;;4959973;28;20069;-69
2022/05/08 00:26:27;;;;;;;8.18;6.25;;;16.60;99.90;;;;;;4964811;28;20023;-69
2022/05/08 00:28:52;;;;;;;9.00;5.57;;;16.60;99.90;;;;;;4965231;28;20491;-69
2022/05/08 00:31:18;;;;;;;9.45;5.03;;;16.50;99.90;;;;;;4966147;28;20019;-69
2022/05/08 00:33:44;;;;;;;6.78;5.05;;;16.50;99.90;;;;;;4967228;28;20027;-69
2022/05/08 00:36:09;;;;;;;8.68;5.28;;;16.40;99.90;;;;;;4963004;28;20049;-69
2022/05/08 00:38:36;;;;;;;8.65;4.95;;;16.30;99.90;;;;;;4962327;28;20114;-69
2022/05/08 00:41:02;;;;;;;8.50;4.80;;;16.30;99.90;;;;;;4964065;28;20030;-69
2022/05/08 00:43:36;;;;;;;7.38;4.78;;;16.20;99.90;;;;;;4970519;28;20495;-69
2022/05/08 00:46:12;;;;;;;10.02;5.20;;;16.20;99.90;;;;;;4973130;28;20053;-69
2022/05/08 00:48:39;;;;;;;10.52;5.00;;;16.10;99.90;;;;;;4972169;28;20042;-69
2022/05/08 00:51:08;;;;;;;6.68;4.95;;;16.10;99.90;;;;;;4971852;28;20027;-69
2022/05/08 00:53:42;;;;;;;9.52;5.82;;;16.10;99.90;;;;;;4971848;28;20035;-69
2022/05/08 00:56:10;;;;;;;8.65;5.00;;;16.00;99.90;;;;;;4965661;28;20034;-69
2022/05/08 00:58:37;;;;;;;10.30;5.03;;;16.10;99.90;;;;;;4967487;28;20036;-69
2022/05/08 01:01:04;;;;;;;5.38;4.85;;;16.10;99.90;;;;;;4969339;28;20030;-69
2022/05/08 01:03:31;;;;;;;10.13;5.88;;;16.10;99.90;;;;;;4966146;28;20399;-69
2022/05/08 01:05:57;;;;;;;9.82;6.18;;;16.10;99.90;;;;;;4972722;28;20034;-69
2022/05/08 01:08:24;;;;;;;9.93;5.28;;;16.00;99.90;;;;;;4970428;28;20122;-69
2022/05/08 01:10:50;;;;;;;10.07;5.50;;;16.10;99.90;;;;;;4970856;28;20034;-69
2022/05/08 01:13:16;;;;;;;12.25;6.18;;;16.10;99.90;;;;;;4965772;28;20034;-69
2022/05/08 01:15:43;;;;;;;14.48;7.10;;;16.10;99.90;;;;;;4970166;28;20411;-69
2022/05/08 01:18:11;;;;;;;8.73;6.20;;;16.00;99.90;;;;;;4968839;28;20039;-69
2022/05/08 01:20:38;;;;;;;10.23;6.32;;;16.10;99.90;;;;;;4972183;28;20392;-69
2022/05/08 01:23:05;;;;;;;10.93;6.88;;;16.10;99.90;;;;;;4965297;28;20130;-69
2022/05/08 01:25:35;;;;;;;10.18;6.43;;;16.00;99.90;;;;;;4960524;28;20058;-69
2022/05/08 01:28:04;;;;;;;13.82;6.95;;;16.00;99.90;;;;;;4972115;28;20113;-69
2022/05/08 01:30:32;;;;;;;14.00;7.00;;;16.00;99.90;;;;;;4961089;28;20557;-69
2022/05/08 01:33:00;;;;;;;13.25;8.25;;;16.00;99.90;;;;;;4968007;28;20042;-68
2022/05/08 01:35:27;;;;;;;11.23;7.47;;;15.90;99.90;;;;;;4971942;28;20093;-69
2022/05/08 01:37:52;;;;;;;13.05;7.80;;;15.90;99.90;;;;;;4969929;28;20488;-69
2022/05/08 01:40:18;;;;;;;16.30;8.50;;;15.90;99.90;;;;;;4969482;28;20046;-69
2022/05/08 01:42:44;;;;;;;13.95;9.07;;;15.80;99.90;;;;;;4970595;28;20455;-69
2022/05/08 01:45:11;;;;;;;15.48;9.57;;;15.80;99.90;;;;;;4964525;28;20019;-69
2022/05/08 01:50:22;;;;;;;15.73;9.65;;;15.70;99.90;;;;;;4966432;28;20099;-69
2022/05/08 01:52:48;;;;;;;13.93;9.75;;;15.70;99.90;;;;;;4970692;28;20039;-69
2022/05/08 01:55:14;;;;;;;15.68;9.80;;;15.60;99.90;;;;;;4969800;28;20030;-69
2022/05/08 01:57:39;;;;;;;16.50;9.57;;;15.60;99.90;;;;;;4970991;28;20471;-69
2022/05/08 02:00:06;;;;;;;17.15;10.25;;;15.60;99.90;;;;;;4969558;28;20023;-69
2022/05/08 02:02:32;;;;;;;19.20;10.23;;;15.70;99.90;;;;;;4969884;28;20050;-69
2022/05/08 02:04:59;;;;;;;16.98;10.20;;;15.70;99.90;;;;;;4965075;28;20038;-69
2022/05/08 02:07:25;;;;;;;19.35;9.82;;;15.70;99.90;;;;;;4972186;28;20038;-69
2022/05/08 02:09:51;;;;;;;19.25;10.55;;;15.70;99.90;;;;;;4968632;28;20716;-69
2022/05/08 02:12:17;;;;;;;14.95;10.10;;;15.50;99.90;;;;;;4969950;28;20057;-69
2022/05/08 02:14:43;;;;;;;18.38;10.75;;;15.50;99.90;;;;;;4962545;28;20065;-69
2022/05/08 02:17:10;;;;;;;18.27;12.25;;;15.40;99.90;;;;;;4970175;28;20364;-69
2022/05/08 02:19:36;;;;;;;15.80;11.27;;;15.40;99.90;;;;;;4970636;28;20038;-69
2022/05/08 02:22:01;;;;;;;18.98;12.30;;;15.40;99.90;;;;;;4969187;28;20027;-69
2022/05/08 02:24:27;;;;;;;19.48;11.57;;;15.40;99.90;;;;;;4971387;28;20387;-70
2022/05/08 02:26:52;;;;;;;15.65;11.82;;;15.40;99.90;;;;;;4970699;28;20069;-69
2022/05/08 02:29:18;;;;;;;19.10;11.68;;;15.50;99.90;;;;;;4971511;28;20030;-69
2022/05/08 02:31:44;;;;;;;17.40;11.32;;;15.40;99.90;;;;;;4968664;28;20027;-69
2022/05/08 02:34:10;;;;;;;18.67;12.15;;;15.50;99.90;;;;;;4969561;28;20033;-70
2022/05/08 02:36:36;;;;;;;20.58;12.10;;;15.40;99.90;;;;;;4968074;28;20399;-69
2022/05/08 02:39:02;;;;;;;15.15;11.80;;;15.40;99.90;;;;;;4965563;28;20050;-69
2022/05/08 02:41:28;;;;;;;15.93;12.55;;;15.50;99.90;;;;;;4967146;28;20030;-70
2022/05/08 02:43:53;;;;;;;17.05;11.93;;;15.50;99.90;;;;;;4970918;28;20054;-69
2022/05/08 02:46:19;;;;;;;14.63;12.00;;;15.40;99.90;;;;;;4969436;28;20073;-69
2022/05/08 02:48:44;;;;;;;16.90;12.02;;;15.40;99.90;;;;;;4970401;28;20081;-70
2022/05/08 02:51:10;;;;;;;19.00;12.98;;;15.30;99.90;;;;;;4968875;28;20085;-69
2022/05/08 02:53:36;;;;;;;20.23;12.35;;;15.30;99.90;;;;;;4966042;28;20031;-69
2022/05/08 02:58:46;;;;;;;21.08;12.30;;;15.10;99.90;;;;;;4966627;28;20045;-69
2022/05/08 03:01:12;;;;;;;16.55;11.88;;;15.10;99.90;;;;;;4969167;28;20376;-69
2022/05/08 03:03:38;;;;;;;17.67;12.02;;;15.10;99.90;;;;;;4968840;28;20058;-70
2022/05/08 03:06:05;;;;;;;19.88;13.05;;;15.10;99.90;;;;;;4968044;28;20034;-69
2022/05/08 03:08:31;;;;;;;16.90;11.95;;;15.10;99.90;;;;;;4970476;28;20035;-69
2022/05/08 03:13:41;;;;;;;16.92;11.43;;;15.30;99.90;;;;;;4968310;28;20100;-69
2022/05/08 03:16:09;;;;;;;18.27;11.68;;;15.10;99.90;;;;;;4968558;28;20023;-69
2022/05/08 03:18:36;;;;;;;25.70;12.52;;;15.10;99.90;;;;;;4967945;28;20023;-69
2022/05/08 03:21:02;;;;;;;15.80;11.70;;;15.10;99.90;;;;;;4965705;28;20380;-69
2022/05/08 03:23:28;;;;;;;18.80;11.40;;;15.00;99.90;;;;;;4969260;28;20092;-69
2022/05/08 03:25:54;;;;;;;15.65;11.57;;;15.10;99.90;;;;;;4969535;28;20055;-69
2022/05/08 03:28:20;;;;;;;20.17;10.57;;;15.00;99.90;;;;;;4964333;28;20030;-68
2022/05/08 03:30:46;;;;;;;20.10;12.52;;;14.80;99.90;;;;;;4966603;28;20729;-69
2022/05/08 03:33:12;;;;;;;12.10;9.20;;;14.70;99.90;;;;;;4969608;28;20114;-69
2022/05/08 03:35:38;;;;;;;15.13;9.68;;;14.70;99.90;;;;;;4969488;28;20027;-69
2022/05/08 03:38:05;;;;;;;14.50;9.73;;;14.70;99.90;;;;;;4967205;28;20042;-69
2022/05/08 03:40:32;;;;;;;16.88;9.95;;;14.60;99.90;;;;;;4967302;28;20089;-69
2022/05/08 03:42:58;;;;;;;16.63;10.77;;;14.70;99.90;;;;;;4968402;28;20537;-69
2022/05/08 03:45:24;;;;;;;18.70;11.25;;;14.70;99.90;;;;;;4969963;28;20039;-69
2022/05/08 03:47:51;;;;;;;16.70;9.48;;;14.60;99.90;;;;;;4965919;28;20046;-69
2022/05/08 03:50:18;;;;;;;20.98;11.82;;;14.60;99.90;;;;;;4966822;28;20030;-68
2022/05/08 03:52:44;;;;;;;17.35;11.00;;;14.50;99.90;;;;;;4965162;28;20031;-68
2022/05/08 03:55:11;;;;;;;17.05;11.32;;;14.40;99.90;;;;;;4962198;28;20110;-69
2022/05/08 03:57:37;;;;;;;17.73;10.70;;;14.50;99.90;;;;;;4962075;28;20043;-69
2022/05/08 04:00:07;;;;;;;18.40;11.02;;;14.50;99.90;;;;;;4969290;28;20102;-68
2022/05/08 04:02:33;;;;;;;20.55;11.32;;;14.50;99.90;;;;;;4961030;28;20380;-69
2022/05/08 04:05:00;;;;;;;16.38;10.85;;;14.50;99.90;;;;;;4968698;28;20034;-69
2022/05/08 04:07:26;;;;;;;20.65;12.38;;;14.50;99.90;;;;;;4967748;28;20072;-69
2022/05/08 04:09:51;;;;;;;19.90;11.98;;;14.40;99.90;;;;;;4967313;28;20117;-68
2022/05/08 04:12:17;;;;;;;18.30;11.57;;;14.40;99.90;;;;;;4969641;28;20083;-69
2022/05/08 04:14:43;;;;;;;19.63;11.75;;;14.40;99.90;;;;;;4965157;28;20035;-69
2022/05/08 04:17:08;;;;;;;19.80;12.43;;;14.30;99.90;;;;;;4966218;28;20042;-68
2022/05/08 04:19:34;;;;;;;18.00;11.88;;;14.30;99.90;;;;;;4964796;28;20034;-68
2022/05/08 04:24:44;;;;;;;19.83;12.27;;;14.20;99.90;;;;;;4966288;28;20091;-69
2022/05/08 04:27:10;;;;;;;20.77;12.40;;;14.20;99.90;;;;;;4965078;28;20030;-69
2022/05/08 04:29:36;;;;;;;27.75;13.00;;;14.20;99.90;;;;;;4966821;28;20038;-69
2022/05/08 04:32:03;;;;;;;19.05;11.57;;;14.30;99.90;;;;;;4965501;28;20027;-69
2022/05/08 04:34:28;;;;;;;17.50;11.52;;;14.30;99.90;;;;;;4968108;28;20026;-69
2022/05/08 04:36:54;;;;;;;21.33;12.10;;;14.30;99.90;;;;;;4968781;28;20031;-69
2022/05/08 04:39:21;;;;;;;18.08;12.18;;;14.30;99.90;;;;;;4970343;28;20019;-69
2022/05/08 04:41:47;;;;;;;21.80;11.32;;;14.30;99.90;;;;;;4966482;28;20062;-69
2022/05/08 04:44:13;;;;;;;22.15;11.57;;;14.30;99.90;;;;;;4966158;28;20042;-69
2022/05/08 04:46:38;;;;;;;20.48;12.80;;;14.40;99.90;;;;;;4961071;28;20027;-69
2022/05/08 04:49:04;;;;;;;21.85;11.68;;;14.40;99.90;;;;;;4954953;28;20027;-69
2022/05/08 04:51:30;;;;;;;19.23;11.90;;;14.30;99.90;;;;;;4966801;28;20070;-69
2022/05/08 04:53:56;;;;;;;22.08;13.85;;;14.40;99.90;;;;;;4961883;28;20023;-69
2022/05/08 04:56:22;;;;;;;23.73;12.57;;;14.40;99.90;;;;;;4969174;28;20041;-69
2022/05/08 04:58:48;;;;;;;24.02;12.70;;;14.20;99.90;;;;;;4961055;28;20027;-69
2022/05/08 05:01:14;;;;;;;22.25;12.90;;;14.20;99.90;;;;;;4967505;28;20031;-69
2022/05/08 05:03:41;;;;;;;21.30;13.13;;;14.20;99.90;;;;;;4967624;28;20500;-68
2022/05/08 05:06:07;;;;;;;22.02;12.65;;;14.20;99.90;;;;;;4960850;28;20020;-69
2022/05/08 05:08:33;;;;;;;23.23;12.27;;;14.30;99.90;;;;;;4964063;28;20038;-69
2022/05/08 05:10:58;;;;;;;21.33;12.60;;;14.20;99.90;;;;;;4964640;28;20031;-69
2022/05/08 05:13:25;;;;;;;20.25;12.75;;;14.10;99.90;;;;;;4965690;28;20047;-69
2022/05/08 05:15:51;;;;;;;25.40;12.55;;;14.00;99.90;;;;;;4959935;28;20023;-69
2022/05/08 05:18:17;;;;;;;23.20;12.93;;;13.90;99.90;;;;;;4968670;28;20038;-70
2022/05/08 05:20:42;;;;;;;22.45;12.15;;;13.80;99.90;;;;;;4962181;28;20019;-69
2022/05/08 05:23:08;;;;;;;22.45;12.07;;;13.90;99.90;;;;;;4971298;28;20042;-69
2022/05/08 05:25:34;;;;;;;23.40;13.57;;;14.00;99.90;;;;;;4966988;28;20759;-69
2022/05/08 05:28:00;;;;;;;22.73;13.27;;;14.10;99.90;;;;;;4971772;28;20039;-69
2022/05/08 05:30:26;;;;;;;30.13;14.48;;;14.10;99.90;;;;;;4971799;28;20136;-69
2022/05/08 05:32:51;;;;;;;26.30;12.50;;;14.10;99.90;;;;;;4971991;28;20390;-69
2022/05/08 05:35:17;;;;;;;25.65;12.15;;;14.20;99.90;;;;;;4967162;28;20034;-69
2022/05/08 05:37:42;;;;;;;24.85;13.40;;;14.10;99.90;;;;;;4969357;28;20096;-69
2022/05/08 05:40:08;;;;;;;26.17;13.50;;;14.20;99.90;;;;;;4971287;28;20106;-69
2022/05/08 05:42:34;;;;;;;23.75;12.25;;;14.30;99.90;;;;;;4967627;28;20038;-69
2022/05/08 05:45:00;;;;;;;26.65;12.60;;;14.30;99.90;;;;;;4971247;28;20380;-69
2022/05/08 05:50:10;;;;;;;25.60;14.30;;;14.20;99.90;;;;;;4967962;28;20569;-69
2022/05/08 05:52:36;;;;;;;24.70;13.02;;;14.30;99.90;;;;;;4971346;28;20427;-69
2022/05/08 05:55:06;;;;;;;28.65;13.90;;;14.30;99.90;;;;;;4971421;28;20037;-69
2022/05/08 05:57:36;;;;;;;24.45;13.40;;;14.40;99.90;;;;;;4969819;28;20027;-69
2022/05/08 06:00:09;;;;;;;26.77;13.05;;;14.60;99.90;;;;;;4968054;28;20019;-69
2022/05/08 06:02:36;;;;;;;24.23;12.30;;;14.50;99.90;;;;;;4970763;28;20029;-69
2022/05/08 06:05:01;;;;;;;30.50;13.40;;;14.50;99.90;;;;;;4971017;28;20076;-69
2022/05/08 06:07:27;;;;;;;24.85;13.50;;;14.40;99.90;;;;;;4967398;28;20031;-68
2022/05/08 06:09:53;;;;;;;25.75;13.65;;;14.40;99.90;;;;;;4968016;28;20033;-69
2022/05/08 06:12:18;;;;;;;29.88;13.82;;;14.40;99.90;;;;;;4968629;28;20027;-68
2022/05/08 06:14:46;;;;;;;21.48;13.32;;;14.30;99.90;;;;;;4968473;28;20039;-69
2022/05/08 06:17:13;;;;;;;26.55;13.35;;;14.20;99.90;;;;;;4966545;28;20031;-69
2022/05/08 06:19:38;;;;;;;23.33;13.55;;;14.20;99.90;;;;;;4967528;28;20051;-69
2022/05/08 06:22:04;;;;;;;24.33;12.48;;;14.20;99.90;;;;;;4968857;28;21901;-68
2022/05/08 06:24:30;;;;;;;24.08;13.00;;;14.20;99.90;;;;;;4970592;28;20039;-69
2022/05/08 06:26:56;;;;;;;22.65;13.15;;;14.30;99.90;;;;;;4962422;28;20038;-68
2022/05/08 06:29:23;;;;;;;26.85;13.63;;;14.30;99.90;;;;;;4963783;28;20027;-69
2022/05/08 06:31:51;;;;;;;26.67;13.20;;;14.40;99.90;;;;;;4966894;28;20026;-70
2022/05/08 06:34:17;;;;;;;23.30;12.23;;;14.40;99.90;;;;;;4963861;28;20019;-69
2022/05/08 06:36:44;;;;;;;22.38;12.27;;;14.40;99.90;;;;;;4969882;28;20114;-69
2022/05/08 06:39:10;;;;;;;23.55;11.65;;;14.40;99.90;;;;;;4971420;28;20095;-69
2022/05/08 06:41:36;;;;;;;27.80;12.43;;;14.40;99.90;;;;;;4966704;28;20030;-68
2022/05/08 06:44:02;;;;;;;25.90;12.15;;;14.40;99.90;;;;;;4970097;28;20451;-69
2022/05/08 06:46:31;;;;;;;24.58;11.93;;;14.40;99.90;;;;;;4967805;28;20029;-69
2022/05/08 06:49:00;;;;;;;28.02;12.18;;;14.40;99.90;;;;;;4970030;28;20110;-68
2022/05/08 06:51:26;;;;;;;20.90;11.25;;;14.40;99.90;;;;;;4967024;28;20030;-69
2022/05/08 06:53:52;;;;;;;25.10;11.27;;;14.50;99.90;;;;;;4965922;28;20026;-69
2022/05/08 06:56:18;;;;;;;27.42;10.82;;;14.60;99.90;;;;;;4964477;28;20046;-69
2022/05/08 07:01:42;;;;;;;26.02;10.43;;;14.70;99.90;;;;;;4967782;28;20103;-69
2022/05/08 07:04:10;;;;;;;23.15;11.25;;;14.90;99.90;;;;;;4964989;28;20045;-69
2022/05/08 07:06:37;;;;;;;19.48;10.32;;;15.00;99.90;;;;;;4964810;28;20035;-69
2022/05/08 07:09:07;;;;;;;21.23;10.75;;;14.90;99.90;;;;;;4967315;28;20069;-69
2022/05/08 07:11:33;;;;;;;20.35;10.20;;;15.00;99.90;;;;;;4963099;28;20023;-69
2022/05/08 07:14:02;;;;;;;22.77;10.45;;;14.90;99.90;;;;;;4958372;28;20441;-69
2022/05/08 07:16:28;;;;;;;22.63;10.30;;;14.90;99.90;;;;;;4966799;28;20065;-69
2022/05/08 07:18:53;;;;;;;23.90;9.77;;;15.00;99.90;;;;;;4964385;28;20050;-69
2022/05/08 07:21:20;;;;;;;23.15;10.68;;;15.00;99.90;;;;;;4966436;28;20070;-69
2022/05/08 07:23:48;;;;;;;20.05;10.57;;;15.10;99.90;;;;;;4965944;28;20043;-69
2022/05/08 07:26:15;;;;;;;19.05;9.55;;;15.30;99.90;;;;;;4964981;28;20027;-68
2022/05/08 07:28:41;;;;;;;22.45;9.52;;;15.40;99.90;;;;;;4967590;28;20019;-69
2022/05/08 07:31:07;;;;;;;23.13;10.02;;;15.40;99.90;;;;;;4965819;28;20471;-70
2022/05/08 07:33:36;;;;;;;25.77;9.73;;;15.60;99.90;;;;;;4964807;28;20030;-68
2022/05/08 07:36:15;;;;;;;24.20;9.32;;;15.60;99.90;;;;;;4968099;28;20042;-68
2022/05/08 07:38:45;;;;;;;25.85;9.32;;;15.60;99.90;;;;;;4965849;28;20424;-68
2022/05/08 07:41:14;;;;;;;19.67;8.75;;;15.50;99.90;;;;;;4966979;28;20022;-69
2022/05/08 07:43:41;;;;;;;21.23;8.90;;;15.70;99.90;;;;;;4964853;28;20043;-68
2022/05/08 07:46:07;;;;;;;19.67;9.50;;;15.80;99.90;;;;;;4966240;28;20077;-68
2022/05/08 07:48:32;;;;;;;22.92;8.75;;;16.00;99.90;;;;;;4963332;28;20031;-68
2022/05/08 07:51:00;;;;;;;20.52;7.70;;;16.00;99.90;;;;;;4963606;28;20114;-69
2022/05/08 07:53:27;;;;;;;22.77;8.10;;;16.00;99.90;;;;;;4964659;28;20031;-68
2022/05/08 07:55:53;;;;;;;18.90;8.15;;;15.90;99.90;;;;;;4965375;28;20031;-68
2022/05/08 07:58:21;;;;;;;26.75;8.20;;;16.10;99.90;;;;;;4964006;28;20035;-68
2022/05/08 08:00:47;;;;;;;21.52;7.95;;;16.20;99.90;;;;;;4965805;28;20034;-68
2022/05/08 08:03:12;;;;;;;21.10;7.43;;;16.30;99.90;;;;;;4964618;28;20501;-68
2022/05/08 08:05:38;;;;;;;23.10;8.13;;;16.50;99.90;;;;;;4966603;28;20037;-69
2022/05/08 08:08:04;;;;;;;18.90;8.73;;;16.70;99.90;;;;;;4969259;28;20031;-68
2022/05/08 08:10:30;;;;;;;19.88;7.88;;;16.80;99.90;;;;;;4965213;28;20058;-68
2022/05/08 08:12:59;;;;;;;18.60;7.47;;;16.90;99.90;;;;;;4964082;28;20123;-68
2022/05/08 08:15:24;;;;;;;20.58;7.70;;;17.00;99.90;;;;;;4966923;28;20394;-68
2022/05/08 08:17:50;;;;;;;18.92;7.15;;;17.10;99.90;;;;;;4964188;28;20046;-69
2022/05/08 08:20:16;;;;;;;20.30;8.23;;;17.10;99.90;;;;;;4965009;28;20019;-68
2022/05/08 08:22:41;;;;;;;20.45;7.35;;;17.10;99.90;;;;;;4964182;28;20507;-68
2022/05/08 08:25:07;;;;;;;22.77;7.60;;;17.10;99.90;;;;;;4966023;28;20541;-69
2022/05/08 08:27:33;;;;;;;23.55;7.05;;;17.30;99.90;;;;;;4962327;28;20442;-68
2022/05/08 08:29:59;;;;;;;24.58;8.95;;;17.50;99.90;;;;;;4963218;28;20037;-69
2022/05/08 08:32:26;;;;;;;19.20;6.88;;;17.70;99.90;;;;;;4961187;28;20034;-70
2022/05/08 08:34:53;;;;;;;15.80;6.85;;;17.80;99.90;;;;;;4962777;28;20084;-69
2022/05/08 08:37:19;;;;;;;23.38;7.28;;;18.00;99.90;;;;;;4964773;28;20035;-69
2022/05/08 08:39:45;;;;;;;23.30;7.55;;;17.90;99.90;;;;;;4968531;28;20027;-68
2022/05/08 08:42:30;;;;;;;20.50;7.03;;;18.10;99.90;;;;;;4961293;28;20076;-68
2022/05/08 08:47:53;;;;;;;16.85;6.47;;;18.00;99.90;;;;;;4965016;28;20518;-68
2022/05/08 08:50:22;;;;;;;24.77;6.32;;;18.20;99.80;;;;;;4964223;28;20027;-68
2022/05/08 08:52:48;;;;;;;17.98;6.30;;;18.20;99.20;;;;;;4962921;28;20031;-68
2022/05/08 08:55:15;;;;;;;22.27;6.63;;;18.40;99.10;;;;;;4967174;28;20035;-68
2022/05/08 08:57:41;;;;;;;23.98;6.00;;;18.50;99.90;;;;;;4969115;28;20085;-68
2022/05/08 09:00:08;;;;;;;15.30;5.90;;;18.50;99.50;;;;;;4970136;28;20483;-68
2022/05/08 09:02:34;;;;;;;18.20;6.10;;;18.60;99.50;;;;;;4965388;28;20027;-68
2022/05/08 09:05:04;;;;;;;20.80;6.82;;;18.70;98.90;;;;;;4968801;28;20650;-69
2022/05/08 09:07:43;;;;;;;17.65;5.85;;;18.80;98.30;;;;;;4980998;28;20284;-69
2022/05/08 09:10:15;;;;;;;22.40;6.72;;;18.70;98.40;;;;;;4964897;28;20030;-69
2022/05/08 09:12:43;;;;;;;17.42;6.18;;;18.90;98.50;;;;;;4966353;28;20046;-68
2022/05/08 09:15:20;;;;;;;18.10;6.75;;;19.00;98.40;;;;;;4967786;28;20102;-71
2022/05/08 09:17:47;;;;;;;14.85;5.35;;;19.10;96.40;;;;;;4964557;28;20039;-70
2022/05/08 09:20:35;;;;;;;20.40;5.88;;;19.10;97.10;;;;;;4966942;28;20027;-70
2022/05/08 09:23:21;;;;;;;16.42;5.93;;;19.10;97.10;;;;;;4966228;28;20051;-71
2022/05/08 09:26:02;;;;;;;21.98;5.60;;;19.30;96.50;;;;;;4967662;28;20065;-70
2022/05/08 09:28:40;;;;;;;16.42;5.43;;;19.20;95.90;;;;;;4962238;28;20039;-69
2022/05/08 09:31:08;;;;;;;16.00;5.03;;;19.40;95.10;;;;;;4969260;28;20085;-69
2022/05/08 09:33:38;;;;;;;15.43;5.03;;;19.60;93.70;;;;;;4967710;28;20062;-70
2022/05/08 09:36:08;;;;;;;13.20;4.20;;;19.90;93.30;;;;;;4970237;28;20034;-68
2022/05/08 09:38:57;;;;;;;12.32;4.45;;;19.70;93.20;;;;;;4969399;28;20027;-69
2022/05/08 09:41:33;;;;;;;16.95;4.43;;;19.70;94.00;;;;;;4964974;28;20054;-70
2022/05/08 09:44:13;;;;;;;15.05;4.30;;;19.80;93.20;;;;;;4966937;28;20665;-70
2022/05/08 09:46:43;;;;;;;13.57;4.20;;;19.70;92.30;;;;;;4969415;28;20027;-71
2022/05/08 09:49:13;;;;;;;14.88;4.22;;;19.90;92.60;;;;;;4967166;28;20026;-70
2022/05/08 09:51:41;;;;;;;12.00;4.10;;;20.00;92.70;;;;;;4969248;28;20027;-70
2022/05/08 09:54:08;;;;;;;11.25;4.25;;;20.20;92.40;;;;;;4970394;28;20039;-70
2022/05/08 09:56:35;;;;;;;16.50;4.13;;;20.10;92.60;;;;;;4969471;28;20098;-70
2022/05/08 09:59:01;;;;;;;14.40;4.68;;;20.10;92.60;;;;;;4966980;28;20031;-70
2022/05/08 10:01:27;;;;;;;12.60;4.68;;;20.10;91.50;;;;;;4964502;28;20073;-70
2022/05/08 10:03:55;;;;;;;11.70;4.63;;;20.20;91.50;;;;;;4969148;28;20120;-70
2022/05/08 10:06:21;;;;;;;15.07;4.13;;;20.40;91.50;;;;;;4968345;28;20027;-70
2022/05/08 10:08:48;;;;;;;11.50;4.32;;;20.50;91.80;;;;;;4969087;28;20054;-70
2022/05/08 10:14:04;;;;;;;12.77;4.32;;;20.80;90.70;;;;;;4966297;28;20123;-70
2022/05/08 10:16:52;;;;;;;10.88;4.68;;;20.80;90.40;;;;;;4965784;28;20038;-70
2022/05/08 10:19:17;;;;;;;10.18;3.50;;;21.00;90.30;;;;;;4970520;28;20493;-70
2022/05/08 10:22:06;;;;;;;11.32;3.65;;;20.90;89.30;;;;;;4968831;28;20031;-70
2022/05/08 10:24:34;;;;;;;13.23;3.83;;;20.80;88.10;;;;;;4967591;28;20042;-69
2022/05/08 10:27:16;;;;;;;13.85;3.97;;;20.80;89.70;;;;;;4968355;28;20084;-70
2022/05/08 10:29:57;;;;;;;10.18;3.55;;;21.00;89.00;;;;;;4970060;28;20034;-70
2022/05/08 10:32:32;;;;;;;10.73;3.55;;;21.10;87.70;;;;;;4970058;28;20030;-70
2022/05/08 10:35:25;;;;;;;9.88;3.47;;;21.00;85.70;;;;;;4970371;28;20018;-69
2022/05/08 10:37:59;;;;;;;13.60;3.75;;;21.20;84.20;;;;;;4968659;28;20037;-70
2022/05/08 10:40:28;;;;;;;12.65;3.70;;;21.20;86.10;;;;;;4967972;28;20035;-70
2022/05/08 10:42:59;;;;;;;7.80;3.53;;;21.10;87.00;;;;;;4969878;28;20092;-69
2022/05/08 10:45:33;;;;;;;10.98;3.25;;;21.40;85.80;;;;;;4967422;28;20034;-70
2022/05/08 10:48:05;;;;;;;10.70;3.28;;;21.40;86.60;;;;;;4969560;28;20035;-71
2022/05/08 10:50:30;;;;;;;9.52;3.63;;;21.60;82.20;;;;;;4967884;28;20019;-68
2022/05/08 10:52:58;;;;;;;9.75;3.65;;;21.70;84.10;;;;;;4963888;28;20045;-68
2022/05/08 10:55:24;;;;;;;8.63;2.60;;;21.80;86.70;;;;;;4969893;28;20026;-69
2022/05/08 10:57:51;;;;;;;7.78;3.25;;;22.00;82.50;;;;;;4966522;28;20057;-68
2022/05/08 11:00:20;;;;;;;6.88;2.80;;;22.00;82.10;;;;;;4967769;28;20463;-68
2022/05/08 11:02:51;;;;;;;7.28;2.88;;;21.90;81.40;;;;;;4965105;28;20847;-68
2022/05/08 11:05:23;;;;;;;11.25;3.40;;;21.90;81.80;;;;;;4969467;28;20031;-68
2022/05/08 11:07:54;;;;;;;10.33;3.77;;;22.00;83.70;;;;;;4968457;28;20106;-68
2022/05/08 11:10:28;;;;;;;8.45;3.50;;;22.00;84.10;;;;;;4968483;28;20027;-68
2022/05/08 11:13:15;;;;;;;7.80;2.72;;;22.10;83.60;;;;;;4967285;28;20118;-68
2022/05/08 11:15:44;;;;;;;9.13;3.88;;;22.00;82.90;;;;;;4967840;28;20046;-67
2022/05/08 11:18:11;;;;;;;8.55;3.55;;;22.00;83.40;;;;;;4965023;28;20029;-68
2022/05/08 11:20:59;;;;;;;7.35;3.00;;;22.20;84.50;;;;;;4964771;28;20039;-69
2022/05/08 11:23:31;;;;;;;14.27;3.30;;;22.40;82.60;;;;;;4967504;28;20027;-67
2022/05/08 11:25:59;;;;;;;8.70;2.90;;;22.50;82.60;;;;;;4968552;28;20487;-68
2022/05/08 11:28:27;;;;;;;5.30;2.75;;;22.60;84.00;;;;;;4966821;28;20031;-68
2022/05/08 11:30:54;;;;;;;8.23;2.88;;;22.50;81.80;;;;;;4966994;28;20124;-67
2022/05/08 11:36:26;;;;;;;7.75;3.13;;;22.50;82.50;;;;;;4968737;28;20054;-67
2022/05/08 11:39:03;;;;;;;6.78;3.10;;;22.70;84.30;;;;;;4967308;28;20079;-67
2022/05/08 11:41:37;;;;;;;8.30;2.80;;;22.60;84.60;;;;;;4963787;28;20030;-68
2022/05/08 11:44:15;;;;;;;9.82;3.00;;;22.80;85.80;;;;;;4966584;28;20434;-67
2022/05/08 11:46:44;;;;;;;9.68;3.15;;;22.60;83.20;;;;;;4961381;28;20045;-67
2022/05/08 11:49:24;;;;;;;9.73;3.58;;;22.60;84.10;;;;;;4964457;28;20030;-68
2022/05/08 11:51:58;;;;;;;12.05;3.70;;;22.60;81.60;;;;;;4967227;28;20483;-68
2022/05/08 11:54:35;;;;;;;8.82;2.83;;;22.70;83.40;;;;;;4965169;28;20088;-69
2022/05/08 11:57:20;;;;;;;12.70;4.30;;;22.70;82.00;;;;;;4966906;28;20035;-69
2022/05/08 11:59:47;;;;;;;6.75;2.92;;;22.70;83.50;;;;;;4963333;28;20238;-69
2022/05/08 12:02:14;;;;;;;7.38;2.92;;;22.50;83.70;;;;;;4962044;28;20033;-70
2022/05/08 12:04:41;;;;;;;11.68;2.72;;;22.80;83.40;;;;;;4967675;28;20113;-69
2022/05/08 12:07:11;;;;;;;5.75;2.50;;;23.00;83.60;;;;;;4968633;28;20077;-69
2022/05/08 12:09:53;;;;;;;7.47;2.25;;;22.90;80.40;;;;;;4968428;28;20023;-69
2022/05/08 12:12:35;;;;;;;6.60;2.95;;;22.90;81.60;;;;;;4968131;28;20022;-69
2022/05/08 12:15:07;;;;;;;7.75;2.55;;;22.70;82.10;;;;;;4965589;28;20030;-69
2022/05/08 12:17:39;;;;;;;7.60;2.50;;;22.60;83.30;;;;;;4965968;28;20043;-69
2022/05/08 12:20:31;;;;;;;6.00;2.30;;;22.70;82.20;;;;;;4963624;28;20340;-69
2022/05/08 12:23:03;;;;;;;7.25;2.28;;;22.80;80.50;;;;;;4965589;28;20050;-69
2022/05/08 12:25:30;;;;;;;7.47;2.70;;;22.70;81.20;;;;;;4963727;28;20386;-69
2022/05/08 12:27:55;;;;;;;7.45;2.35;;;23.10;81.10;;;;;;4966985;28;20527;-69
2022/05/08 12:30:22;;;;;;;5.32;2.03;;;23.30;81.30;;;;;;4970589;28;20064;-68
2022/05/08 12:32:48;;;;;;;9.70;2.63;;;23.50;79.80;;;;;;4972304;28;20030;-68
2022/05/08 12:35:14;;;;;;;7.35;2.25;;;23.30;80.60;;;;;;4972969;28;20500;-68
2022/05/08 12:37:41;;;;;;;7.63;1.90;;;23.60;85.40;;;;;;4972646;28;20109;-68
2022/05/08 12:40:08;;;;;;;3.88;1.65;;;23.50;78.90;;;;;;4972815;28;20121;-68
2022/05/08 12:42:34;;;;;;;3.83;2.15;;;23.50;78.20;;;;;;4973631;28;20104;-69
2022/05/08 12:45:00;;;;;;;7.63;2.35;;;23.70;81.00;;;;;;4972950;28;20585;-69
2022/05/08 12:47:26;;;;;;;3.88;2.35;;;23.70;79.40;;;;;;4973144;28;20475;-69
2022/05/08 12:49:53;;;;;;;5.80;2.00;;;23.70;78.80;;;;;;4974229;28;20026;-69
2022/05/08 12:52:19;;;;;;;6.20;2.15;;;23.60;78.50;;;;;;4971585;28;20026;-68
2022/05/08 12:54:45;;;;;;;5.57;2.47;;;23.40;78.10;;;;;;4973207;28;20062;-70
2022/05/08 12:57:11;;;;;;;6.28;2.58;;;23.50;83.70;;;;;;4974652;28;20035;-69
2022/05/08 12:59:47;;;;;;;7.43;2.72;;;23.50;81.50;;;;;;4973035;28;20084;-68
2022/05/08 13:02:18;;;;;;;6.55;2.17;;;23.50;78.70;;;;;;4972390;28;20110;-69
2022/05/08 13:04:46;;;;;;;5.97;2.47;;;23.50;77.20;;;;;;4969970;28;20023;-68
2022/05/08 13:07:12;;;;;;;4.32;2.28;;;23.70;81.70;;;;;;4972541;28;20020;-68